createdAt,value
2023-11-23T00:01:55.823Z,30.52
2023-11-23T00:06:59.659Z,29.75
2023-11-23T00:12:03.380Z,30.92
2023-11-23T00:17:09.430Z,30.70
2023-11-23T00:22:13.286Z,30.45
2023-11-23T00:27:17.157Z,31.12
2023-11-23T00:32:23.635Z,31.05
2023-11-23T00:37:27.403Z,30.42
2023-11-23T00:42:31.205Z,33.58
2023-11-23T00:47:36.249Z,30.75
2023-11-23T00:52:40.001Z,31.12
2023-11-23T00:57:43.725Z,30.55
2023-11-23T01:02:49.093Z,30.50
2023-11-23T01:07:54.046Z,31.37
2023-11-23T01:12:58.121Z,31.20
2023-11-23T01:18:03.377Z,29.92
2023-11-23T01:23:07.148Z,30.10
2023-11-23T01:28:10.894Z,30.40
2023-11-23T01:33:16.789Z,30.92
2023-11-23T01:38:20.776Z,27.73
2023-11-23T01:43:24.692Z,29.70
2023-11-23T01:48:32.215Z,28.85
2023-11-23T01:53:36.791Z,28.10
2023-11-23T01:58:40.925Z,28.77
2023-11-23T02:03:46.785Z,28.38
2023-11-23T02:08:51.029Z,27.67
2023-11-23T02:13:55.798Z,28.15
2023-11-23T02:19:01.159Z,28.17
2023-11-23T02:24:09.404Z,28.40
2023-11-23T02:29:13.147Z,27.73
2023-11-23T02:34:16.872Z,25.88
2023-11-23T02:39:21.964Z,29.08
2023-11-23T02:44:25.879Z,27.75
2023-11-23T02:49:29.582Z,27.83
2023-11-23T02:54:36.253Z,27.95
2023-11-23T02:59:39.985Z,27.25
2023-11-23T03:04:43.732Z,28.08
2023-11-23T03:09:48.877Z,26.98
2023-11-23T03:14:52.683Z,26.98
2023-11-23T03:19:56.472Z,28.80
2023-11-23T03:25:01.753Z,27.17
2023-11-23T03:30:07.880Z,26.33
2023-11-23T03:35:11.844Z,28.80
2023-11-23T03:40:17.369Z,27.13
2023-11-23T03:45:22.279Z,25.65
2023-11-23T03:50:26.304Z,26.75
2023-11-23T03:55:31.372Z,26.65
2023-11-23T04:00:35.848Z,27.10
2023-11-23T04:05:39.608Z,26.77
2023-11-23T04:10:44.752Z,27.25
2023-11-23T04:15:48.443Z,25.95
2023-11-23T04:20:52.189Z,27.83
2023-11-23T04:25:57.931Z,27.27
2023-11-23T04:31:01.735Z,26.30
2023-11-23T04:36:06.181Z,25.48
2023-11-23T04:41:12.920Z,24.87
2023-11-23T04:46:17.697Z,24.37
2023-11-23T04:51:21.448Z,24.98
2023-11-23T04:56:26.698Z,24.25
2023-11-23T05:01:30.497Z,24.83
2023-11-23T05:06:34.283Z,23.70
2023-11-23T05:11:39.329Z,23.70
2023-11-23T05:16:43.224Z,21.55
2023-11-23T05:21:46.948Z,21.25
2023-11-23T05:26:52.203Z,22.92
2023-11-23T05:31:55.947Z,21.70
2023-11-23T05:36:59.693Z,22.48
2023-11-23T05:42:04.969Z,21.35
2023-11-23T05:47:08.782Z,20.73
2023-11-23T05:52:12.754Z,20.75
2023-11-23T05:57:18.508Z,20.17
2023-11-23T06:02:22.776Z,19.58
2023-11-23T06:07:26.551Z,21.25
2023-11-23T06:12:31.615Z,21.75
2023-11-23T06:17:35.834Z,21.33
2023-11-23T06:22:39.755Z,21.23
2023-11-23T06:27:45.331Z,21.25
2023-11-23T06:32:49.823Z,21.58
2023-11-23T06:37:53.988Z,19.98
2023-11-23T06:42:59.065Z,19.80
2023-11-23T06:48:02.929Z,20.17
2023-11-23T06:53:06.913Z,21.33
2023-11-23T06:58:11.995Z,20.08
2023-11-23T07:03:15.834Z,18.77
2023-11-23T07:08:19.570Z,19.45
2023-11-23T07:13:24.728Z,19.08
2023-11-23T07:18:28.594Z,19.30
2023-11-23T07:23:32.991Z,18.55
2023-11-23T07:28:38.082Z,18.80
2023-11-23T07:33:41.811Z,19.17
2023-11-23T07:38:46.110Z,17.98
2023-11-23T07:43:51.864Z,18.30
2023-11-23T07:48:55.650Z,18.98
2023-11-23T07:53:59.403Z,19.30
2023-11-23T07:59:04.633Z,20.70
2023-11-23T08:04:08.502Z,19.87
2023-11-23T08:09:17.012Z,18.40
2023-11-23T08:14:22.342Z,16.67
2023-11-23T08:19:26.565Z,15.73
2023-11-23T08:24:30.457Z,15.35
2023-11-23T08:29:37.021Z,15.15
2023-11-23T08:34:42.556Z,15.15
2023-11-23T08:39:47.993Z,15.20
2023-11-23T08:44:53.405Z,14.50
2023-11-23T08:49:57.396Z,14.45
2023-11-23T08:55:01.726Z,15.52
2023-11-23T09:00:11.007Z,14.07
2023-11-23T09:05:14.881Z,14.15
2023-11-23T09:10:18.918Z,13.07
2023-11-23T09:15:24.229Z,11.73
2023-11-23T09:20:28.976Z,12.18
2023-11-23T09:25:35.208Z,12.55
2023-11-23T09:30:40.727Z,10.85
2023-11-23T09:35:44.714Z,12.30
2023-11-23T09:40:48.493Z,10.23
2023-11-23T09:45:53.947Z,10.63
2023-11-23T09:50:58.475Z,8.38
2023-11-23T09:56:04.938Z,8.35
2023-11-23T10:01:11.687Z,7.22
2023-11-23T10:06:15.944Z,6.15
2023-11-23T10:11:19.963Z,5.90
2023-11-23T10:16:25.126Z,5.87
2023-11-23T10:21:30.390Z,5.45
2023-11-23T10:26:34.315Z,5.62
2023-11-23T10:31:39.405Z,5.35
2023-11-23T10:36:43.677Z,6.00
2023-11-23T10:41:47.643Z,5.07
2023-11-23T10:46:54.900Z,6.20
2023-11-23T10:51:58.786Z,4.97
2023-11-23T10:57:05.685Z,4.70
2023-11-23T11:02:12.105Z,4.32
2023-11-23T11:07:15.911Z,4.43
2023-11-23T11:12:19.828Z,5.45
2023-11-23T11:17:37.405Z,5.03
2023-11-23T11:22:41.173Z,5.15
2023-11-23T11:27:45.030Z,4.45
2023-11-23T11:32:53.547Z,4.22
2023-11-23T11:37:58.337Z,4.32
2023-11-23T11:43:03.289Z,3.92
2023-11-23T11:48:08.559Z,3.55
2023-11-23T11:53:12.809Z,3.58
2023-11-23T11:58:16.552Z,2.92
2023-11-23T12:03:21.851Z,3.55
2023-11-23T12:08:33.210Z,3.20
2023-11-23T12:13:37.387Z,3.40
2023-11-23T12:18:42.524Z,2.92
2023-11-23T12:23:47.103Z,3.30
2023-11-23T12:28:51.661Z,3.72
2023-11-23T12:33:56.755Z,2.80
2023-11-23T12:39:00.565Z,3.22
2023-11-23T12:44:04.921Z,1.95
2023-11-23T12:49:11.326Z,2.70
2023-11-23T12:54:16.189Z,2.62
2023-11-23T12:59:20.134Z,2.80
2023-11-23T13:04:29.628Z,2.45
2023-11-23T13:09:34.753Z,2.55
2023-11-23T13:14:38.709Z,2.80
2023-11-23T13:19:44.599Z,2.40
2023-11-23T13:24:48.457Z,2.10
2023-11-23T13:29:52.269Z,2.00
2023-11-23T13:34:57.949Z,2.55
2023-11-23T13:40:04.772Z,2.03
2023-11-23T13:45:09.588Z,2.22
2023-11-23T13:50:18.053Z,1.90
2023-11-23T13:55:21.948Z,1.90
2023-11-23T14:00:25.757Z,2.37
2023-11-23T14:05:31.739Z,2.58
2023-11-23T14:10:36.418Z,2.15
2023-11-23T14:15:40.681Z,3.20
2023-11-23T14:20:45.777Z,3.47
2023-11-23T14:25:49.584Z,3.00
2023-11-23T14:30:54.330Z,2.10
2023-11-23T14:35:59.396Z,3.30
2023-11-23T14:41:03.195Z,2.83
2023-11-23T14:46:08.556Z,2.10
2023-11-23T14:51:13.840Z,2.80
2023-11-23T14:56:17.604Z,2.70
2023-11-23T15:01:21.596Z,2.17
2023-11-23T15:06:27.547Z,3.00
2023-11-23T15:11:31.886Z,2.62
2023-11-23T15:16:35.654Z,3.05
2023-11-23T15:21:43.652Z,3.05
2023-11-23T15:26:47.966Z,3.22
2023-11-23T15:31:53.430Z,2.72
2023-11-23T15:36:59.905Z,2.95
2023-11-23T15:42:04.540Z,3.20
2023-11-23T15:47:12.034Z,2.95
2023-11-23T15:52:17.463Z,3.73
2023-11-23T15:57:21.350Z,3.60
2023-11-23T16:02:25.288Z,3.15
2023-11-23T16:07:30.509Z,3.20
2023-11-23T16:12:34.844Z,3.75
2023-11-23T16:17:39.644Z,3.30
2023-11-23T16:22:45.705Z,3.28
2023-11-23T16:27:49.515Z,3.60
2023-11-23T16:32:55.588Z,3.62
2023-11-23T16:38:01.338Z,3.25
2023-11-23T16:43:05.466Z,3.65
2023-11-23T16:48:09.345Z,3.00
2023-11-23T16:53:14.512Z,3.17
2023-11-23T16:58:18.273Z,3.65
2023-11-23T17:03:22.141Z,3.67
2023-11-23T17:08:27.290Z,4.15
2023-11-23T17:13:31.015Z,3.15
2023-11-23T17:18:34.807Z,3.15
2023-11-23T17:23:39.916Z,3.67
2023-11-23T17:28:44.227Z,3.80
2023-11-23T17:33:48.633Z,3.50
2023-11-23T17:38:53.714Z,4.12
2023-11-23T17:43:57.781Z,4.57
2023-11-23T17:49:01.675Z,4.70
2023-11-23T17:54:07.622Z,4.05
2023-11-23T17:59:25.478Z,4.12
2023-11-23T18:04:35.072Z,4.82
2023-11-23T18:09:40.153Z,5.07
2023-11-23T18:14:44.012Z,4.95
2023-11-23T18:19:47.752Z,4.25
2023-11-23T18:24:52.838Z,5.45
2023-11-23T18:29:56.698Z,4.85
2023-11-23T18:35:02.109Z,6.50
2023-11-23T18:40:14.118Z,4.75
2023-11-23T18:45:18.922Z,4.80
2023-11-23T18:50:22.752Z,5.07
2023-11-23T18:55:28.711Z,5.43
2023-11-23T19:00:33.010Z,4.75
2023-11-23T19:05:36.844Z,5.22
2023-11-23T19:10:42.986Z,6.43
2023-11-23T19:15:46.980Z,6.95
2023-11-23T19:20:52.679Z,5.70
2023-11-23T19:25:58.530Z,5.60
2023-11-23T19:31:06.499Z,4.62
2023-11-23T19:36:13.615Z,5.80
2023-11-23T19:41:22.986Z,5.18
2023-11-23T19:46:29.123Z,5.40
2023-11-23T19:51:33.320Z,5.47
2023-11-23T19:56:38.403Z,5.20
2023-11-23T20:01:43.685Z,5.05
2023-11-23T20:06:47.825Z,6.03
2023-11-23T20:11:52.926Z,5.25
2023-11-23T20:16:56.839Z,7.53
2023-11-23T20:22:00.576Z,7.43
2023-11-23T20:27:06.158Z,7.40
2023-11-23T20:32:10.770Z,5.30
2023-11-23T20:37:15.173Z,4.93
2023-11-23T20:42:20.393Z,4.87
2023-11-23T20:47:24.208Z,5.30
2023-11-23T20:52:27.945Z,4.40
2023-11-23T20:57:33.604Z,3.70
2023-11-23T21:02:38.045Z,4.25
2023-11-23T21:07:42.423Z,2.90
2023-11-23T21:12:47.868Z,3.35
2023-11-23T21:17:51.669Z,3.75
2023-11-23T21:22:56.243Z,3.58
2023-11-23T21:28:01.392Z,3.22
2023-11-23T21:33:06.281Z,3.55
2023-11-23T21:38:11.382Z,3.50
2023-11-23T21:43:16.612Z,3.72
2023-11-23T21:48:21.581Z,3.03
2023-11-23T21:53:25.689Z,3.37
2023-11-23T21:58:31.124Z,2.20
2023-11-23T22:03:34.929Z,2.37
2023-11-23T22:08:38.718Z,3.10
2023-11-23T22:13:44.958Z,4.05
2023-11-23T22:18:49.367Z,2.65
2023-11-23T22:23:53.567Z,2.70
2023-11-23T22:28:59.523Z,3.65
2023-11-23T22:34:04.520Z,3.83
2023-11-23T22:39:10.263Z,4.00
2023-11-23T22:44:16.654Z,4.30
2023-11-23T22:49:20.370Z,4.43
2023-11-23T22:54:24.247Z,5.95
2023-11-23T22:59:29.308Z,4.18
2023-11-23T23:04:34.187Z,5.03
2023-11-23T23:09:38.264Z,4.93
2023-11-23T23:14:43.338Z,4.65
2023-11-23T23:19:47.114Z,4.30
2023-11-23T23:24:50.837Z,4.87
2023-11-23T23:29:55.923Z,5.62
2023-11-23T23:35:01.550Z,5.35
2023-11-23T23:40:05.978Z,5.40
2023-11-23T23:45:11.296Z,4.20
2023-11-23T23:50:15.113Z,5.62
2023-11-23T23:55:18.826Z,6.25
